Andersen AFB, Guam
Current Conditions -  °F | °C
As of 12:58 PM on Saturday 01 Nov 2014 (Local Time) from PGUA Reporting Station
Few Clouds Few Clouds  
Wind Chill: 86°   Ceiling: Unl
Heat Index: 92°   Visibility: 10mi
Dew Point: 72°   Wind: 12mph
Humidity: 64%   Direction: 350°N
Pressure: 29.8"   Gusts: NA
Location:  13.58°N, 144.92°E
Report Text: PGUA 010258Z AUTO 35010KT 10SM FEW031 30/22 A2980 RMK AO2 SLP081 T02990224 57016 RVRNO $
Loading
Personal Weather Stations






























Interactive Weather Map
Tropical Storm Tracking
New forecast layout! Learn more

10-Day Weather Forecast

Advertisements
Track Severe Weather on mobile